Time;durP1;ratioP1;P1;durP2;ratioP2;P2;SDS_P1;SDS_P2;PMS_P1;PMS_P2;Temp;Humidity;BMP_temperature;BMP_pressure;BME280_temperature;BME280_humidity;BME280_pressure;Samples;Min_cycle;Max_cycle;Signal;HPM_P1;HPM_P2
2023/07/18 00:00:51;;;;;;;6.90;3.22;;;;;;;18.18;78.98;100983.09;6243720;22;20054;-75
2023/07/18 00:03:19;;;;;;;6.00;3.40;;;;;;;18.22;79.13;100986.44;6240726;22;20059;-73
2023/07/18 00:05:46;;;;;;;6.88;3.70;;;;;;;18.28;78.50;100999.38;6246547;22;20023;-74
2023/07/18 00:08:13;;;;;;;5.35;3.08;;;;;;;18.21;79.02;100992.75;6245993;22;20022;-75
2023/07/18 00:10:41;;;;;;;7.03;3.33;;;;;;;18.15;79.33;100987.78;6245387;22;20045;-75
2023/07/18 00:13:09;;;;;;;5.13;3.33;;;;;;;18.03;79.30;100975.25;6238415;22;20026;-75
2023/07/18 00:15:36;;;;;;;5.95;3.33;;;;;;;18.04;79.85;100985.00;6245639;22;20026;-73
2023/07/18 00:18:02;;;;;;;6.55;3.15;;;;;;;18.02;80.33;100993.16;6243868;22;20020;-74
2023/07/18 00:20:30;;;;;;;6.60;3.38;;;;;;;17.96;80.61;100992.69;6242802;22;20081;-74
2023/07/18 00:23:00;;;;;;;6.10;3.40;;;;;;;17.83;81.30;100992.69;6240285;22;20027;-74
2023/07/18 00:25:28;;;;;;;6.78;3.83;;;;;;;17.77;81.84;100996.66;6269817;22;20026;-74
2023/07/18 00:27:55;;;;;;;5.68;3.40;;;;;;;17.68;82.31;100983.84;6270773;22;20015;-74
2023/07/18 00:30:22;;;;;;;6.13;3.60;;;;;;;17.77;82.54;100993.13;6242952;22;20027;-74
2023/07/18 00:32:49;;;;;;;7.93;3.88;;;;;;;17.77;82.62;100993.97;6239672;22;20081;-75
2023/07/18 00:35:16;;;;;;;6.28;3.67;;;;;;;17.76;83.17;100984.22;6271407;22;20330;-74
2023/07/18 00:37:43;;;;;;;6.57;3.70;;;;;;;17.82;82.94;100989.13;6241976;22;20047;-74
2023/07/18 00:40:14;;;;;;;6.90;3.28;;;;;;;17.83;82.86;100993.53;6269680;22;20102;-74
2023/07/18 00:42:45;;;;;;;7.00;3.35;;;;;;;17.82;83.05;100994.50;6266563;22;20019;-74
2023/07/18 00:45:12;;;;;;;5.60;3.22;;;;;;;17.72;83.34;100982.69;6241267;22;20019;-75
2023/07/18 00:47:42;;;;;;;7.97;3.28;;;;;;;17.76;83.73;100996.75;6243527;22;20039;-74
2023/07/18 00:50:17;;;;;;;6.28;3.67;;;;;;;17.73;83.78;100992.44;6244324;22;20105;-74
2023/07/18 00:52:52;;;;;;;5.53;3.38;;;;;;;17.54;84.38;100971.38;6238534;22;20502;-73
2023/07/18 00:55:20;;;;;;;5.93;3.75;;;;;;;17.59;84.53;100991.63;6245342;22;20485;-74
2023/07/18 00:57:47;;;;;;;8.63;3.65;;;;;;;17.52;84.93;100988.47;6245857;22;20016;-74
2023/07/18 01:00:16;;;;;;;8.90;3.80;;;;;;;17.48;85.67;100989.63;6246119;22;20529;-74
2023/07/18 01:02:45;;;;;;;5.25;3.63;;;;;;;17.48;86.02;100992.31;6243824;22;20187;-74
2023/07/18 01:05:17;;;;;;;5.97;3.67;;;;;;;17.43;86.61;100994.47;6274594;22;20023;-74
2023/07/18 01:07:45;;;;;;;7.80;4.00;;;;;;;17.36;87.49;100993.13;6242900;22;20020;-75
2023/07/18 01:10:23;;;;;;;7.20;3.58;;;;;;;17.33;87.69;100998.69;6243619;22;20083;-75
2023/07/18 01:12:52;;;;;;;6.93;3.72;;;;;;;17.31;87.91;100996.13;6241405;22;20020;-74
2023/07/18 01:15:19;;;;;;;7.65;3.40;;;;;;;17.25;88.40;100984.97;6268789;22;20026;-75
2023/07/18 01:17:47;;;;;;;6.50;3.75;;;;;;;17.26;88.78;100994.72;6242972;22;20032;-74
2023/07/18 01:20:21;;;;;;;6.57;3.40;;;;;;;17.25;88.91;100987.63;6244325;22;20024;-74
2023/07/18 01:22:55;;;;;;;4.90;3.30;;;;;;;17.26;89.52;100976.81;6259742;22;20024;-74
2023/07/18 01:25:22;;;;;;;6.72;3.63;;;;;;;17.30;89.19;100988.19;6246228;22;20023;-75
2023/07/18 01:27:51;;;;;;;9.57;4.07;;;;;;;17.30;89.92;100988.19;6245312;22;20118;-75
2023/07/18 01:30:21;;;;;;;8.25;3.40;;;;;;;17.25;90.41;100980.47;6247024;22;20461;-74
2023/07/18 01:32:48;;;;;;;9.38;4.50;;;;;;;17.25;90.95;100985.81;6253959;22;20035;-74
2023/07/18 01:35:17;;;;;;;9.90;4.20;;;;;;;17.15;91.61;100980.22;6257362;22;20122;-74
2023/07/18 01:37:44;;;;;;;5.30;3.50;;;;;;;17.02;92.82;100979.25;6275360;22;20020;-74
2023/07/18 01:40:14;;;;;;;6.43;3.72;;;;;;;16.96;93.78;100978.81;6217506;22;20025;-75
2023/07/18 01:42:42;;;;;;;7.95;3.80;;;;;;;16.80;94.58;100958.41;6266361;22;20094;-74
2023/07/18 01:45:12;;;;;;;7.45;3.92;;;;;;;16.86;95.10;100978.53;6270552;22;20697;-73
2023/07/18 01:47:40;;;;;;;5.90;4.10;;;;;;;16.83;95.34;100970.72;6244190;22;20091;-74
2023/07/18 01:50:07;;;;;;;8.88;4.43;;;;;;;16.91;96.19;100981.78;6244323;22;20024;-74
2023/07/18 01:52:35;;;;;;;9.65;4.13;;;;;;;16.79;96.69;100971.88;6241589;22;20532;-73
2023/07/18 01:55:03;;;;;;;7.20;3.70;;;;;;;16.68;98.57;100972.56;6271357;22;20051;-75
2023/07/18 01:57:32;;;;;;;6.22;3.97;;;;;;;16.60;99.41;100965.94;6245847;22;20405;-74
2023/07/18 01:59:59;;;;;;;7.30;4.03;;;;;;;16.51;100.00;100966.50;6271961;22;20019;-74
2023/07/18 02:02:27;;;;;;;8.45;4.35;;;;;;;16.47;100.00;100965.84;6242956;22;20023;-75
2023/07/18 02:04:56;;;;;;;10.07;4.60;;;;;;;16.43;100.00;100962.50;6271974;22;20026;-74
2023/07/18 02:07:22;;;;;;;8.45;4.28;;;;;;;16.42;100.00;100971.47;6273584;22;20019;-74
2023/07/18 02:09:49;;;;;;;8.45;4.40;;;;;;;16.44;100.00;100958.00;6254017;22;20042;-74
2023/07/18 02:12:16;;;;;;;6.65;4.22;;;;;;;16.56;100.00;100965.25;6257123;22;20075;-76
2023/07/18 02:14:43;;;;;;;6.45;3.88;;;;;;;16.58;100.00;100959.81;6288033;22;20077;-75
2023/07/18 02:17:09;;;;;;;7.82;4.13;;;;;;;16.65;100.00;100963.88;6251368;22;20027;-74
2023/07/18 02:19:36;;;;;;;9.50;4.20;;;;;;;16.61;100.00;100956.94;6248831;22;20098;-74
2023/07/18 02:22:04;;;;;;;6.88;3.75;;;;;;;16.57;100.00;100966.13;6244361;22;20047;-75
2023/07/18 02:24:32;;;;;;;7.65;4.20;;;;;;;16.57;100.00;100960.75;6243411;22;20019;-74
2023/07/18 02:26:58;;;;;;;6.55;3.95;;;;;;;16.59;100.00;100953.50;6246202;22;20051;-74
2023/07/18 02:29:25;;;;;;;6.78;4.43;;;;;;;16.60;100.00;100960.56;6245392;22;20043;-74
2023/07/18 02:31:53;;;;;;;9.73;4.35;;;;;;;16.54;100.00;100956.47;6271992;22;20469;-74
2023/07/18 02:34:20;;;;;;;8.02;4.15;;;;;;;16.57;100.00;100958.09;6242639;22;20065;-74
2023/07/18 02:36:48;;;;;;;6.85;4.32;;;;;;;16.42;100.00;100951.91;6246168;22;20020;-74
2023/07/18 02:39:15;;;;;;;11.23;3.88;;;;;;;16.36;100.00;100969.19;6219333;22;20012;-74
2023/07/18 02:41:44;;;;;;;8.07;4.10;;;;;;;16.20;100.00;100965.75;6245269;22;20069;-75
2023/07/18 02:44:11;;;;;;;9.15;4.72;;;;;;;16.09;100.00;100965.50;6241833;22;20030;-75
2023/07/18 02:46:38;;;;;;;8.70;4.63;;;;;;;16.05;100.00;100961.34;6272520;22;20465;-74
2023/07/18 02:49:04;;;;;;;6.18;3.97;;;;;;;16.11;100.00;100971.63;6246792;22;20023;-74
2023/07/18 02:51:31;;;;;;;8.15;4.57;;;;;;;16.13;100.00;100969.72;6248818;22;20122;-75
2023/07/18 02:53:58;;;;;;;8.32;4.80;;;;;;;16.15;100.00;100954.47;6244869;22;20422;-75
2023/07/18 02:56:24;;;;;;;6.88;4.07;;;;;;;16.19;100.00;100961.34;6247348;22;20020;-75
2023/07/18 02:58:51;;;;;;;7.68;4.13;;;;;;;16.25;100.00;100957.41;6245281;22;20499;-75
2023/07/18 03:01:19;;;;;;;10.27;3.97;;;;;;;16.26;100.00;100960.00;6244913;22;20385;-74
2023/07/18 03:03:46;;;;;;;7.70;4.30;;;;;;;16.16;100.00;100958.84;6241139;22;20106;-75
2023/07/18 03:06:14;;;;;;;7.38;4.28;;;;;;;16.02;100.00;100961.50;6246008;22;20027;-75
2023/07/18 03:08:41;;;;;;;8.18;4.38;;;;;;;15.93;100.00;100962.06;6245351;22;20018;-76
2023/07/18 03:11:08;;;;;;;6.55;4.20;;;;;;;15.81;100.00;100947.63;6245575;22;20055;-75
2023/07/18 03:13:36;;;;;;;8.70;4.28;;;;;;;15.95;100.00;100969.03;6241146;22;20028;-75
2023/07/18 03:16:04;;;;;;;6.72;3.92;;;;;;;15.96;100.00;100957.38;6246484;22;20024;-75
2023/07/18 03:18:31;;;;;;;7.40;4.03;;;;;;;15.96;100.00;100954.72;6272300;22;20016;-74
2023/07/18 03:20:58;;;;;;;5.93;4.10;;;;;;;16.08;100.00;100982.50;6230147;22;20020;-72
2023/07/18 03:23:26;;;;;;;9.75;4.47;;;;;;;16.04;100.00;100978.31;6237129;23;20020;-73
2023/07/18 03:25:53;;;;;;;7.15;4.20;;;;;;;16.02;100.00;100981.06;6218156;23;20466;-73
2023/07/18 03:28:21;;;;;;;5.47;4.05;;;;;;;15.98;100.00;100976.00;6243607;23;20016;-73
2023/07/18 03:30:49;;;;;;;7.63;4.18;;;;;;;16.05;100.00;100980.03;6226537;22;20069;-73
2023/07/18 03:33:16;;;;;;;7.38;3.92;;;;;;;16.04;100.00;100978.31;6244850;22;20058;-73
2023/07/18 03:35:43;;;;;;;7.30;3.85;;;;;;;15.91;100.00;100955.94;6248435;22;20102;-73
2023/07/18 03:38:09;;;;;;;7.40;4.47;;;;;;;16.05;100.00;100974.69;6247476;22;20047;-73
2023/07/18 03:40:36;;;;;;;10.70;4.03;;;;;;;15.94;100.00;100956.63;6222721;22;20046;-73
2023/07/18 03:43:03;;;;;;;7.45;3.90;;;;;;;15.84;100.00;100957.28;6246116;22;20054;-73
2023/07/18 03:45:30;;;;;;;7.55;3.70;;;;;;;15.76;100.00;100969.25;6249317;22;20038;-73
2023/07/18 03:47:57;;;;;;;8.90;3.95;;;;;;;15.67;100.00;100967.16;6248688;22;20019;-73
2023/07/18 03:50:25;;;;;;;7.75;4.28;;;;;;;15.70;100.00;100969.63;6224144;22;20450;-73
2023/07/18 03:52:53;;;;;;;7.65;4.32;;;;;;;15.63;100.00;100962.06;6246613;22;20457;-73
2023/07/18 03:55:20;;;;;;;7.18;4.30;;;;;;;15.62;100.00;100963.00;6244514;22;20269;-74
2023/07/18 03:57:47;;;;;;;7.88;4.22;;;;;;;15.68;100.00;100960.84;6247991;22;20720;-73
2023/07/18 04:00:14;;;;;;;5.88;3.60;;;;;;;15.62;100.00;100955.88;6248160;22;20022;-73
2023/07/18 04:02:45;;;;;;;7.88;4.18;;;;;;;15.58;100.00;100950.81;6277892;22;20111;-73
2023/07/18 04:05:14;;;;;;;8.13;3.90;;;;;;;15.71;100.00;100955.34;6271505;22;20027;-73
2023/07/18 04:07:43;;;;;;;7.15;3.83;;;;;;;15.72;100.00;100957.06;6248788;22;20031;-73
2023/07/18 04:10:11;;;;;;;6.45;4.03;;;;;;;15.69;100.00;100945.69;6246984;22;20020;-73
2023/07/18 04:12:39;;;;;;;6.38;3.75;;;;;;;15.81;100.00;100957.44;6247712;22;20074;-72
2023/07/18 04:15:07;;;;;;;6.68;3.83;;;;;;;15.85;100.00;100959.00;6243104;22;20477;-72
2023/07/18 04:17:34;;;;;;;6.47;3.72;;;;;;;15.93;100.00;100956.72;6248118;22;20077;-72
2023/07/18 04:20:04;;;;;;;7.95;3.65;;;;;;;15.91;100.00;100959.47;6247904;22;20023;-72
2023/07/18 04:22:31;;;;;;;8.68;4.20;;;;;;;15.86;100.00;100960.72;6247726;22;20398;-73
2023/07/18 04:24:58;;;;;;;8.25;5.13;;;;;;;15.77;100.00;100946.94;6244188;22;20022;-73
2023/07/18 04:27:27;;;;;;;7.68;3.92;;;;;;;15.86;100.00;100955.38;6274195;22;20047;-73
2023/07/18 04:29:56;;;;;;;8.57;4.22;;;;;;;15.93;100.00;100964.72;6248353;22;20016;-73
2023/07/18 04:32:23;;;;;;;6.22;3.75;;;;;;;15.93;100.00;100962.06;6246964;22;20469;-73
2023/07/18 04:34:50;;;;;;;7.32;3.80;;;;;;;15.92;100.00;100957.66;6270233;22;20052;-73
2023/07/18 04:37:16;;;;;;;6.78;3.80;;;;;;;15.88;100.00;100950.81;6274492;22;20069;-73
2023/07/18 04:39:47;;;;;;;5.93;3.35;;;;;;;15.84;100.00;100943.91;6248512;22;20034;-73
2023/07/18 04:42:13;;;;;;;;;;;;;;;15.93;100.00;100954.91;6247952;22;20095;-73
2023/07/18 04:44:40;;;;;;;6.47;4.22;;;;;;;15.92;100.00;100957.66;6243822;22;19968;-73
2023/07/18 04:47:08;;;;;;;11.38;4.43;;;;;;;15.92;100.00;100966.53;6248356;22;20082;-73
2023/07/18 04:49:35;;;;;;;5.78;3.70;;;;;;;15.97;100.00;100963.59;6247393;22;20073;-73
2023/07/18 04:52:03;;;;;;;7.72;3.55;;;;;;;16.08;100.00;100956.63;6248068;22;20050;-72
2023/07/18 04:54:30;;;;;;;7.35;3.58;;;;;;;16.10;100.00;100951.19;6240807;22;20055;-72
2023/07/18 04:56:58;;;;;;;7.35;3.83;;;;;;;16.19;100.00;100956.00;6275106;22;20158;-73
2023/07/18 04:59:25;;;;;;;6.80;3.70;;;;;;;16.26;100.00;100956.47;6246907;22;20030;-73
2023/07/18 05:01:55;;;;;;;7.53;3.80;;;;;;;16.34;100.00;100952.38;6245125;22;20027;-73
2023/07/18 05:04:22;;;;;;;5.53;3.47;;;;;;;16.37;100.00;100952.16;6241691;22;20493;-72
2023/07/18 05:06:49;;;;;;;7.05;3.88;;;;;;;16.16;100.00;100901.88;6273827;22;20020;-73
2023/07/18 05:09:18;;;;;;;7.18;3.20;;;;;;;16.43;100.00;100935.75;6220796;22;20016;-73
2023/07/18 05:11:45;;;;;;;6.63;3.50;;;;;;;16.57;99.79;100947.41;6249797;22;20082;-72
2023/07/18 05:14:12;;;;;;;6.82;3.80;;;;;;;16.60;99.08;100952.56;6243983;22;20050;-71
2023/07/18 05:16:39;;;;;;;6.40;3.38;;;;;;;16.66;99.36;100960.25;6249077;22;20546;-73
2023/07/18 05:19:07;;;;;;;5.90;3.63;;;;;;;16.72;97.91;100954.47;6250416;22;20353;-71
2023/07/18 05:21:38;;;;;;;5.43;3.20;;;;;;;16.74;97.65;100944.53;6222957;22;20023;-73
2023/07/18 05:24:05;;;;;;;7.60;3.83;;;;;;;16.84;98.25;100953.72;6244453;22;20099;-72
2023/07/18 05:26:32;;;;;;;5.00;3.13;;;;;;;16.93;97.71;100942.41;6220525;22;20106;-73
2023/07/18 05:28:59;;;;;;;6.28;3.70;;;;;;;16.99;94.74;100946.53;6276168;22;20073;-73
2023/07/18 05:31:25;;;;;;;8.68;3.50;;;;;;;17.04;93.96;100944.38;6249148;22;20457;-72
2023/07/18 05:33:52;;;;;;;5.07;3.30;;;;;;;17.12;93.59;100956.31;6274449;22;20057;-72
2023/07/18 05:36:19;;;;;;;6.07;3.78;;;;;;;17.14;92.99;100949.06;6245823;22;20015;-71
2023/07/18 05:38:45;;;;;;;4.93;3.28;;;;;;;17.07;94.52;100934.34;6249596;22;20098;-72
2023/07/18 05:41:13;;;;;;;5.78;3.60;;;;;;;17.23;94.64;100955.59;6247791;22;20019;-72
2023/07/18 05:43:39;;;;;;;7.80;3.50;;;;;;;17.30;94.29;100959.63;6247275;22;20098;-71
2023/07/18 05:46:07;;;;;;;8.02;4.65;;;;;;;17.31;92.08;100950.63;6248046;22;20043;-72
2023/07/18 05:48:34;;;;;;;8.45;3.95;;;;;;;17.30;90.87;100956.94;6252530;22;20024;-72
2023/07/18 05:51:01;;;;;;;7.03;3.90;;;;;;;17.19;91.35;100936.22;6251133;22;20035;-73
2023/07/18 05:53:27;;;;;;;7.75;3.75;;;;;;;17.34;92.35;100941.50;6248348;22;20020;-73
2023/07/18 05:55:54;;;;;;;5.22;3.25;;;;;;;17.49;91.86;100946.69;6253757;22;20020;-73
2023/07/18 05:58:21;;;;;;;5.93;3.40;;;;;;;17.64;91.58;100957.38;6260299;22;20461;-72
2023/07/18 06:00:47;;;;;;;7.80;3.65;;;;;;;17.67;89.99;100941.97;6259993;22;20046;-72
2023/07/18 06:03:14;;;;;;;6.88;4.22;;;;;;;17.78;88.23;100951.97;6253089;22;20077;-72
2023/07/18 06:05:41;;;;;;;12.25;4.20;;;;;;;17.77;86.96;100932.34;6277904;22;20034;-73
2023/07/18 06:08:11;;;;;;;8.77;4.63;;;;;;;17.92;86.57;100942.97;6249840;22;20020;-74
2023/07/18 06:10:38;;;;;;;7.03;3.85;;;;;;;18.09;86.22;100953.41;6275674;22;20020;-73
2023/07/18 06:13:05;;;;;;;8.88;3.75;;;;;;;18.22;84.38;100949.75;6274164;22;20058;-73
2023/07/18 06:15:33;;;;;;;8.13;4.25;;;;;;;18.43;81.91;100952.72;6242741;22;20027;-72
2023/07/18 06:18:00;;;;;;;7.32;3.83;;;;;;;18.59;81.42;100944.47;6248913;22;20365;-72
2023/07/18 06:20:32;;;;;;;6.90;4.22;;;;;;;18.80;80.41;100942.09;6247296;22;20064;-73
2023/07/18 06:22:59;;;;;;;6.43;3.88;;;;;;;18.95;77.30;100921.31;6250042;22;20054;-72
2023/07/18 06:25:27;;;;;;;9.23;3.72;;;;;;;19.10;76.00;100912.13;6244292;22;20095;-72
2023/07/18 06:27:54;;;;;;;9.88;3.58;;;;;;;19.54;73.68;100925.78;6276147;22;20028;-73
2023/07/18 06:30:21;;;;;;;7.95;3.85;;;;;;;20.08;69.77;100925.22;6248379;22;20019;-72
2023/07/18 06:32:51;;;;;;;7.03;3.53;;;;;;;20.58;65.52;100915.88;6276200;22;20024;-74
2023/07/18 06:35:19;;;;;;;9.43;3.88;;;;;;;21.09;65.28;100922.50;6269182;22;20016;-72
2023/07/18 06:37:50;;;;;;;8.05;3.90;;;;;;;21.47;60.50;100920.19;6247945;22;20028;-72
2023/07/18 06:40:19;;;;;;;7.20;3.80;;;;;;;21.79;57.05;100903.13;6244754;22;20353;-72
2023/07/18 06:42:45;;;;;;;9.57;3.78;;;;;;;22.15;55.24;100910.78;6246636;22;20023;-74
2023/07/18 06:45:13;;;;;;;6.72;3.60;;;;;;;22.33;57.02;100892.13;6242413;22;20480;-71
2023/07/18 06:47:40;;;;;;;8.32;3.67;;;;;;;22.75;60.42;100911.72;6246699;22;20030;-74
2023/07/18 06:50:08;;;;;;;5.50;3.30;;;;;;;22.89;53.04;100888.91;6273690;22;20016;-72
2023/07/18 06:52:35;;;;;;;7.43;3.30;;;;;;;23.33;50.45;100904.59;6274395;22;20099;-74
2023/07/18 06:55:04;;;;;;;7.38;3.53;;;;;;;23.69;48.04;100902.19;6267371;22;20390;-72
2023/07/18 06:57:31;;;;;;;6.80;3.30;;;;;;;23.96;47.20;100907.69;6249010;22;20058;-72
2023/07/18 06:59:58;;;;;;;5.68;2.90;;;;;;;23.94;46.00;100898.88;6245940;22;20022;-73
2023/07/18 07:02:25;;;;;;;5.07;3.20;;;;;;;24.17;47.76;100893.13;6249346;22;20024;-73
2023/07/18 07:04:52;;;;;;;8.05;3.22;;;;;;;24.39;47.17;100890.94;6270767;22;20177;-72
2023/07/18 07:07:18;;;;;;;7.97;2.80;;;;;;;24.47;43.66;100879.34;6247255;22;20047;-73
2023/07/18 07:09:45;;;;;;;6.85;2.90;;;;;;;24.70;43.23;100896.94;6248971;22;20521;-72
2023/07/18 07:12:14;;;;;;;9.32;3.13;;;;;;;24.72;42.82;100891.34;6279688;22;20082;-73
2023/07/18 07:15:01;;;;;;;6.07;2.85;;;;;;;24.80;43.05;100889.59;6251748;22;20477;-72
2023/07/18 07:17:28;;;;;;;7.88;3.50;;;;;;;24.73;42.33;100869.53;6253889;22;20126;-74
2023/07/18 07:19:57;;;;;;;7.30;3.30;;;;;;;24.62;42.10;100880.56;6276598;22;20016;-72
2023/07/18 07:22:33;;;;;;;4.25;2.80;;;;;;;24.58;43.81;100897.25;6228841;22;20024;-71
2023/07/18 07:25:00;;;;;;;8.73;3.05;;;;;;;24.70;43.89;100891.50;6234526;22;20443;-71
2023/07/18 07:27:35;;;;;;;10.18;3.00;;;;;;;24.85;42.00;100891.00;6294002;22;20019;-72
2023/07/18 07:30:03;;;;;;;5.55;2.90;;;;;;;24.97;41.22;100889.81;6294711;22;20068;-71
2023/07/18 07:32:32;;;;;;;8.10;2.70;;;;;;;25.00;41.56;100881.38;6271372;22;20030;-73
2023/07/18 07:35:06;;;;;;;6.78;2.50;;;;;;;25.05;41.28;100879.88;6251775;22;20058;-72
2023/07/18 07:37:33;;;;;;;5.70;2.58;;;;;;;25.00;40.97;100859.69;6276137;22;20055;-73
2023/07/18 07:39:59;;;;;;;4.93;2.80;;;;;;;25.12;41.24;100881.00;6249105;22;20119;-73
2023/07/18 07:42:26;;;;;;;6.53;2.83;;;;;;;25.26;40.99;100890.44;6275989;22;20028;-72
2023/07/18 07:44:53;;;;;;;4.90;2.50;;;;;;;25.43;41.21;100878.75;6273880;22;20028;-73
2023/07/18 07:47:19;;;;;;;7.15;2.97;;;;;;;25.40;39.73;100860.06;6274202;22;20050;-73
2023/07/18 07:49:48;;;;;;;5.97;2.83;;;;;;;25.51;41.10;100865.25;6248387;22;20016;-73
2023/07/18 07:52:15;;;;;;;6.38;2.53;;;;;;;25.33;41.10;100869.00;6247742;22;20024;-73
2023/07/18 07:54:44;;;;;;;4.45;2.50;;;;;;;25.42;41.60;100863.47;6274703;22;20035;-72
2023/07/18 07:57:12;;;;;;;4.53;2.80;;;;;;;25.52;40.91;100861.53;6273688;22;20047;-73
2023/07/18 07:59:39;;;;;;;5.10;2.40;;;;;;;25.85;38.50;100867.22;6247176;22;20019;-73
2023/07/18 08:02:06;;;;;;;6.38;2.35;;;;;;;26.13;38.59;100854.38;6274877;22;20073;-73
2023/07/18 08:04:33;;;;;;;5.65;2.83;;;;;;;26.00;38.30;100822.22;6273453;22;20023;-72
2023/07/18 08:07:00;;;;;;;4.80;2.40;;;;;;;25.97;38.46;100849.69;6249000;22;20078;-73
2023/07/18 08:09:26;;;;;;;5.70;2.70;;;;;;;25.82;38.01;100854.81;6276514;22;20357;-75
2023/07/18 08:11:54;;;;;;;5.63;2.60;;;;;;;25.60;38.09;100849.06;6275027;22;20081;-72
2023/07/18 08:14:21;;;;;;;8.27;2.33;;;;;;;25.63;39.23;100846.06;6247509;22;20074;-74
2023/07/18 08:16:49;;;;;;;7.57;2.65;;;;;;;25.60;38.76;100824.63;6244255;22;20465;-73
2023/07/18 08:19:16;;;;;;;3.58;2.30;;;;;;;25.65;41.49;100844.03;6247815;22;20012;-73
2023/07/18 08:21:44;;;;;;;3.75;2.33;;;;;;;25.81;38.78;100842.25;6241930;23;20020;-72
2023/07/18 08:24:11;;;;;;;5.80;2.47;;;;;;;26.12;37.28;100833.66;6243363;22;20052;-73
2023/07/18 08:26:38;;;;;;;4.78;2.38;;;;;;;26.47;37.54;100832.63;6237496;23;20020;-73
2023/07/18 08:29:06;;;;;;;7.55;2.28;;;;;;;26.59;36.90;100825.91;6242088;23;20081;-73
2023/07/18 08:31:33;;;;;;;5.72;2.60;;;;;;;25.92;37.89;100819.47;6242947;23;20050;-73
2023/07/18 08:34:00;;;;;;;4.75;2.33;;;;;;;25.30;38.88;100813.22;6241747;23;20405;-73
2023/07/18 08:36:29;;;;;;;6.65;2.70;;;;;;;24.51;40.17;100818.50;6238919;23;20488;-74
2023/07/18 08:38:58;;;;;;;5.57;2.17;;;;;;;24.47;41.03;100819.81;6241099;23;20022;-71
2023/07/18 08:41:25;;;;;;;3.45;2.10;;;;;;;24.81;40.37;100815.44;6216946;23;20024;-72
2023/07/18 08:43:52;;;;;;;6.25;2.53;;;;;;;25.09;39.84;100805.41;6241279;23;20465;-72
2023/07/18 08:46:19;;;;;;;5.78;2.33;;;;;;;25.32;40.17;100807.66;6236761;23;20028;-74
2023/07/18 08:48:48;;;;;;;5.15;2.40;;;;;;;25.33;39.19;100812.06;6242992;22;20024;-74
2023/07/18 08:51:14;;;;;;;5.63;2.40;;;;;;;25.40;38.85;100807.72;6241845;23;20030;-72
2023/07/18 08:53:41;;;;;;;3.67;2.00;;;;;;;25.52;38.72;100804.56;6241879;22;20044;-73
2023/07/18 08:56:09;;;;;;;5.18;2.47;;;;;;;25.73;38.36;100797.97;6240435;22;20031;-72
2023/07/18 08:58:37;;;;;;;3.42;2.25;;;;;;;25.94;38.50;100795.75;6241635;23;20054;-73
2023/07/18 09:01:08;;;;;;;3.55;2.42;;;;;;;25.99;37.48;100777.09;6242192;23;20056;-72
2023/07/18 09:03:35;;;;;;;4.88;2.30;;;;;;;26.20;37.27;100774.81;6241197;23;20055;-73
2023/07/18 09:06:02;;;;;;;4.93;2.42;;;;;;;25.96;37.92;100777.44;6212823;23;20028;-74
2023/07/18 09:08:43;;;;;;;4.30;2.08;;;;;;;25.99;38.70;100768.94;6241356;23;20024;-72
2023/07/18 09:11:14;;;;;;;6.00;2.10;;;;;;;25.94;38.19;100752.31;6244353;22;20020;-72
2023/07/18 09:13:42;;;;;;;3.80;2.00;;;;;;;26.17;39.46;100772.41;6251273;22;20099;-72
2023/07/18 09:16:20;;;;;;;3.60;2.10;;;;;;;26.46;37.83;100766.59;6241941;23;20430;-72
2023/07/18 09:18:54;;;;;;;4.40;2.20;;;;;;;26.46;37.38;100763.88;6243355;22;20030;-72
2023/07/18 09:21:22;;;;;;;8.20;3.20;;;;;;;26.31;37.96;100737.53;6250663;22;20024;-85
2023/07/18 09:24:04;;;;;;;6.80;2.30;;;;;;;26.14;38.10;100740.16;6260320;23;20016;-82
2023/07/18 09:26:47;;;;;;;4.53;2.33;;;;;;;26.12;38.10;100744.94;6263318;22;20016;-84
2023/07/18 09:29:29;;;;;;;4.22;2.10;;;;;;;25.67;36.29;100719.94;6261369;23;20139;-85
2023/07/18 09:32:24;;;;;;;3.28;1.67;;;;;;;24.61;37.50;100694.72;6266100;23;20016;-83
2023/07/18 09:35:27;;;;;;;6.10;1.92;;;;;;;24.47;39.72;100711.50;6266266;22;20024;-84
2023/07/18 09:38:11;;;;;;;4.10;2.40;;;;;;;24.42;39.76;100697.56;6265529;22;20046;-85
2023/07/18 09:52:04;;;;;;;3.00;2.03;;;;;;;24.23;36.00;100682.34;6190573;23;20366;-73
2023/07/18 09:54:32;;;;;;;6.38;2.28;;;;;;;24.36;37.13;100676.56;6144270;23;20025;-73
2023/07/18 09:57:09;;;;;;;5.00;2.03;;;;;;;24.42;38.32;100681.34;6149353;23;20036;-73
2023/07/18 09:59:38;;;;;;;4.15;2.55;;;;;;;24.41;37.82;100685.91;6142300;23;20037;-73
2023/07/18 10:59:36;;;;;;;5.10;2.15;;;;;;;26.50;34.31;100644.91;6178946;23;20271;-72
2023/07/18 11:02:04;;;;;;;5.18;2.17;;;;;;;26.31;33.85;100620.78;6143442;23;20113;-74
2023/07/18 11:04:31;;;;;;;4.47;1.90;;;;;;;26.18;34.12;100630.25;6110625;23;20531;-73
2023/07/18 11:06:59;;;;;;;4.20;2.10;;;;;;;26.33;34.78;100640.50;6121611;23;20435;-73
2023/07/18 11:09:27;;;;;;;4.20;2.38;;;;;;;26.59;34.42;100643.94;6137048;23;20055;-73
2023/07/18 11:11:54;;;;;;;2.90;2.10;;;;;;;26.67;33.56;100630.31;6136433;23;20029;-75
2023/07/18 11:14:21;;;;;;;2.75;1.83;;;;;;;26.34;34.01;100598.75;6141067;23;20082;-73
2023/07/18 11:17:18;;;;;;;4.53;1.98;;;;;;;26.22;33.67;100617.19;6136029;23;20020;-74
2023/07/18 11:19:46;;;;;;;3.90;2.15;;;;;;;25.90;33.92;100636.13;6157723;23;20045;-73
2023/07/18 11:22:14;;;;;;;4.20;2.47;;;;;;;25.89;34.42;100623.56;6155370;23;20025;-73
2023/07/18 11:24:45;;;;;;;;;;;;;;;25.76;34.46;100619.47;6128472;23;20404;-74
2023/07/18 11:27:22;;;;;;;5.20;2.13;;;;;;;25.55;35.04;100610.03;6158226;23;19944;-74
2023/07/18 11:29:58;;;;;;;5.28;2.30;;;;;;;25.31;35.47;100576.41;6160024;23;20025;-74
2023/07/18 11:32:45;;;;;;;3.13;2.28;;;;;;;25.67;35.55;100601.47;6155545;23;20026;-74
2023/07/18 11:35:18;;;;;;;4.93;2.80;;;;;;;25.99;35.06;100592.56;6131405;23;20025;-74
2023/07/18 11:37:51;;;;;;;4.82;2.40;;;;;;;26.43;33.49;100593.16;6150528;23;20100;-73
2023/07/18 11:40:25;;;;;;;6.00;3.30;;;;;;;26.80;33.13;100592.63;6125634;23;20468;-74
2023/07/18 11:42:56;;;;;;;5.43;2.63;;;;;;;26.82;33.07;100578.84;6124533;23;20100;-74
2023/07/18 11:45:25;;;;;;;7.15;2.70;;;;;;;26.58;33.24;100582.47;6148606;23;20033;-73
2023/07/18 11:47:56;;;;;;;4.85;2.45;;;;;;;26.33;33.24;100564.47;6145822;23;20033;-73
2023/07/18 11:50:28;;;;;;;2.55;1.90;;;;;;;26.50;33.91;100575.16;6130720;23;20021;-73
2023/07/18 11:52:57;;;;;;;4.40;2.45;;;;;;;26.82;33.45;100582.44;6156235;23;20408;-74
2023/07/18 11:55:24;;;;;;;5.35;2.25;;;;;;;26.69;32.56;100573.97;6154099;23;20029;-75
2023/07/18 11:57:51;;;;;;;3.85;1.98;;;;;;;26.67;32.74;100564.28;6122188;23;20077;-73
2023/07/18 12:00:19;;;;;;;4.55;2.03;;;;;;;26.81;32.20;100561.72;6135141;23;20119;-73
2023/07/18 12:02:46;;;;;;;3.38;2.17;;;;;;;26.74;32.62;100533.56;6178664;23;20029;-73
2023/07/18 12:05:14;;;;;;;3.50;2.15;;;;;;;26.86;32.75;100570.19;6152887;23;20021;-73
2023/07/18 12:07:43;;;;;;;3.47;2.13;;;;;;;26.93;32.84;100556.75;6152775;23;20541;-73
2023/07/18 12:10:10;;;;;;;2.95;2.30;;;;;;;27.14;32.57;100561.66;6155110;23;20021;-74
2023/07/18 12:12:40;;;;;;;5.25;2.40;;;;;;;27.24;31.85;100546.81;6178811;23;20032;-73
2023/07/18 12:15:08;;;;;;;4.90;1.85;;;;;;;27.43;31.30;100553.72;6185334;23;20021;-72
2023/07/18 12:17:35;;;;;;;4.97;2.10;;;;;;;27.43;31.75;100533.84;6157837;23;20060;-74
2023/07/18 12:20:02;;;;;;;4.13;2.00;;;;;;;27.61;32.31;100539.03;6155768;23;20024;-73
2023/07/18 12:22:29;;;;;;;5.88;2.10;;;;;;;27.71;31.72;100537.78;6150211;23;20032;-72
2023/07/18 12:24:55;;;;;;;6.10;2.22;;;;;;;27.89;31.49;100540.22;6181327;23;20080;-73
2023/07/18 12:27:22;;;;;;;4.35;2.10;;;;;;;27.96;31.03;100543.94;6175259;23;20169;-73
2023/07/18 12:29:49;;;;;;;4.05;2.28;;;;;;;27.99;30.38;100527.25;6176546;23;20044;-72
2023/07/18 12:32:15;;;;;;;4.80;2.15;;;;;;;27.85;29.82;100515.28;6176560;23;20027;-71
2023/07/18 12:34:42;;;;;;;4.05;2.00;;;;;;;27.86;31.37;100525.09;6151722;23;20342;-72
2023/07/18 12:37:09;;;;;;;4.68;2.17;;;;;;;27.82;30.85;100518.34;6151107;23;20056;-72
2023/07/18 12:39:36;;;;;;;4.93;2.10;;;;;;;27.65;30.81;100518.63;6128920;23;20021;-71